sensor_id;sensor_type;location;lat;lon;timestamp;P1;durP1;ratioP1;P2;durP2;ratioP2
12511;SDS011;6321;53.798;10.382;2023-03-29T00:00:05;7.77;;;4.50;;
12511;SDS011;6321;53.798;10.382;2023-03-29T00:02:38;9.83;;;4.67;;
12511;SDS011;6321;53.798;10.382;2023-03-29T00:05:04;7.63;;;4.33;;
12511;SDS011;6321;53.798;10.382;2023-03-29T00:07:30;6.83;;;4.17;;
12511;SDS011;6321;53.798;10.382;2023-03-29T00:09:57;11.33;;;4.67;;
12511;SDS011;6321;53.798;10.382;2023-03-29T00:12:23;6.87;;;4.73;;
12511;SDS011;6321;53.798;10.382;2023-03-29T00:14:50;10.70;;;5.23;;
12511;SDS011;6321;53.798;10.382;2023-03-29T00:17:16;9.50;;;5.20;;
12511;SDS011;6321;53.798;10.382;2023-03-29T00:19:42;11.87;;;4.63;;
12511;SDS011;6321;53.798;10.382;2023-03-29T00:22:08;6.83;;;4.63;;
12511;SDS011;6321;53.798;10.382;2023-03-29T00:24:34;6.77;;;4.77;;
12511;SDS011;6321;53.798;10.382;2023-03-29T00:27:00;6.73;;;4.90;;
12511;SDS011;6321;53.798;10.382;2023-03-29T00:29:26;12.33;;;5.17;;
12511;SDS011;6321;53.798;10.382;2023-03-29T00:31:52;6.67;;;4.93;;
12511;SDS011;6321;53.798;10.382;2023-03-29T00:34:20;8.57;;;5.30;;
12511;SDS011;6321;53.798;10.382;2023-03-29T00:36:45;11.90;;;5.70;;
12511;SDS011;6321;53.798;10.382;2023-03-29T00:39:15;8.83;;;5.37;;
12511;SDS011;6321;53.798;10.382;2023-03-29T00:41:43;11.70;;;5.93;;
12511;SDS011;6321;53.798;10.382;2023-03-29T00:44:51;8.27;;;5.17;;
12511;SDS011;6321;53.798;10.382;2023-03-29T00:46:55;10.47;;;6.33;;
12511;SDS011;6321;53.798;10.382;2023-03-29T00:49:21;8.97;;;6.03;;
12511;SDS011;6321;53.798;10.382;2023-03-29T00:51:47;9.47;;;4.93;;
12511;SDS011;6321;53.798;10.382;2023-03-29T00:54:14;5.73;;;5.13;;
12511;SDS011;6321;53.798;10.382;2023-03-29T00:56:42;8.20;;;5.87;;
12511;SDS011;6321;53.798;10.382;2023-03-29T00:59:11;9.07;;;5.63;;
12511;SDS011;6321;53.798;10.382;2023-03-29T01:01:39;8.83;;;6.03;;
12511;SDS011;6321;53.798;10.382;2023-03-29T01:04:08;7.97;;;6.20;;
12511;SDS011;6321;53.798;10.382;2023-03-29T01:06:42;11.77;;;6.40;;
12511;SDS011;6321;53.798;10.382;2023-03-29T01:09:11;8.30;;;5.13;;
12511;SDS011;6321;53.798;10.382;2023-03-29T01:11:39;7.97;;;5.77;;
12511;SDS011;6321;53.798;10.382;2023-03-29T01:14:06;7.30;;;5.70;;
12511;SDS011;6321;53.798;10.382;2023-03-29T01:16:35;10.13;;;6.40;;
12511;SDS011;6321;53.798;10.382;2023-03-29T01:19:04;7.60;;;5.47;;
12511;SDS011;6321;53.798;10.382;2023-03-29T01:21:34;13.27;;;6.30;;
12511;SDS011;6321;53.798;10.382;2023-03-29T01:26:54;10.80;;;6.27;;
12511;SDS011;6321;53.798;10.382;2023-03-29T01:29:23;10.80;;;5.70;;
12511;SDS011;6321;53.798;10.382;2023-03-29T01:31:51;7.27;;;5.40;;
12511;SDS011;6321;53.798;10.382;2023-03-29T01:34:33;7.27;;;5.37;;
12511;SDS011;6321;53.798;10.382;2023-03-29T01:37:02;9.97;;;5.80;;
12511;SDS011;6321;53.798;10.382;2023-03-29T01:39:30;7.80;;;4.97;;
12511;SDS011;6321;53.798;10.382;2023-03-29T01:46:54;8.50;;;6.13;;
12511;SDS011;6321;53.798;10.382;2023-03-29T01:50:12;9.13;;;6.07;;
12511;SDS011;6321;53.798;10.382;2023-03-29T01:52:16;11.90;;;6.23;;
12511;SDS011;6321;53.798;10.382;2023-03-29T01:54:48;8.57;;;6.50;;
12511;SDS011;6321;53.798;10.382;2023-03-29T01:57:16;12.17;;;6.53;;
12511;SDS011;6321;53.798;10.382;2023-03-29T01:59:43;8.80;;;5.87;;
12511;SDS011;6321;53.798;10.382;2023-03-29T02:02:12;12.37;;;7.33;;
12511;SDS011;6321;53.798;10.382;2023-03-29T02:04:40;7.63;;;6.53;;
12511;SDS011;6321;53.798;10.382;2023-03-29T02:07:09;7.07;;;6.33;;
12511;SDS011;6321;53.798;10.382;2023-03-29T02:09:35;9.27;;;6.70;;
12511;SDS011;6321;53.798;10.382;2023-03-29T02:12:02;11.87;;;6.67;;
12511;SDS011;6321;53.798;10.382;2023-03-29T02:14:28;11.40;;;6.37;;
12511;SDS011;6321;53.798;10.382;2023-03-29T02:16:54;12.73;;;7.13;;
12511;SDS011;6321;53.798;10.382;2023-03-29T02:19:21;11.83;;;7.27;;
12511;SDS011;6321;53.798;10.382;2023-03-29T02:21:59;9.03;;;7.07;;
12511;SDS011;6321;53.798;10.382;2023-03-29T02:24:27;11.33;;;7.10;;
12511;SDS011;6321;53.798;10.382;2023-03-29T02:26:56;9.27;;;6.30;;
12511;SDS011;6321;53.798;10.382;2023-03-29T02:29:22;10.00;;;6.23;;
12511;SDS011;6321;53.798;10.382;2023-03-29T02:31:49;8.73;;;6.70;;
12511;SDS011;6321;53.798;10.382;2023-03-29T02:34:20;8.70;;;6.53;;
12511;SDS011;6321;53.798;10.382;2023-03-29T02:36:49;10.03;;;6.40;;
12511;SDS011;6321;53.798;10.382;2023-03-29T02:39:16;10.80;;;6.33;;
12511;SDS011;6321;53.798;10.382;2023-03-29T02:41:44;8.67;;;6.13;;
12511;SDS011;6321;53.798;10.382;2023-03-29T02:44:11;14.73;;;6.00;;
12511;SDS011;6321;53.798;10.382;2023-03-29T02:46:38;7.97;;;6.17;;
12511;SDS011;6321;53.798;10.382;2023-03-29T02:49:06;9.33;;;5.90;;
12511;SDS011;6321;53.798;10.382;2023-03-29T02:51:34;7.60;;;5.90;;
12511;SDS011;6321;53.798;10.382;2023-03-29T02:54:02;8.77;;;5.60;;
12511;SDS011;6321;53.798;10.382;2023-03-29T02:56:30;9.83;;;6.43;;
12511;SDS011;6321;53.798;10.382;2023-03-29T02:59:05;10.47;;;6.50;;
12511;SDS011;6321;53.798;10.382;2023-03-29T03:01:31;7.43;;;5.70;;
12511;SDS011;6321;53.798;10.382;2023-03-29T03:03:57;7.83;;;5.97;;
12511;SDS011;6321;53.798;10.382;2023-03-29T03:06:23;11.50;;;5.70;;
12511;SDS011;6321;53.798;10.382;2023-03-29T03:08:49;12.00;;;6.83;;
12511;SDS011;6321;53.798;10.382;2023-03-29T03:11:15;6.90;;;5.77;;
12511;SDS011;6321;53.798;10.382;2023-03-29T03:13:41;10.00;;;5.83;;
12511;SDS011;6321;53.798;10.382;2023-03-29T03:16:07;8.80;;;6.00;;
12511;SDS011;6321;53.798;10.382;2023-03-29T03:18:33;8.37;;;5.53;;
12511;SDS011;6321;53.798;10.382;2023-03-29T03:20:59;11.03;;;5.70;;
12511;SDS011;6321;53.798;10.382;2023-03-29T03:23:25;9.57;;;5.27;;
12511;SDS011;6321;53.798;10.382;2023-03-29T03:25:51;8.23;;;5.77;;
12511;SDS011;6321;53.798;10.382;2023-03-29T03:28:18;13.03;;;5.63;;
12511;SDS011;6321;53.798;10.382;2023-03-29T03:30:44;9.93;;;4.47;;
12511;SDS011;6321;53.798;10.382;2023-03-29T03:33:10;7.03;;;5.47;;
12511;SDS011;6321;53.798;10.382;2023-03-29T03:35:36;12.93;;;5.40;;
12511;SDS011;6321;53.798;10.382;2023-03-29T03:38:02;6.43;;;4.50;;
12511;SDS011;6321;53.798;10.382;2023-03-29T03:40:29;10.23;;;4.53;;
12511;SDS011;6321;53.798;10.382;2023-03-29T03:42:56;7.73;;;4.80;;
12511;SDS011;6321;53.798;10.382;2023-03-29T03:45:22;10.63;;;4.50;;
12511;SDS011;6321;53.798;10.382;2023-03-29T03:47:49;7.63;;;4.43;;
12511;SDS011;6321;53.798;10.382;2023-03-29T03:50:15;8.83;;;4.03;;
12511;SDS011;6321;53.798;10.382;2023-03-29T03:52:41;7.83;;;4.53;;
12511;SDS011;6321;53.798;10.382;2023-03-29T03:55:07;6.13;;;4.70;;
12511;SDS011;6321;53.798;10.382;2023-03-29T03:57:33;9.53;;;4.53;;
12511;SDS011;6321;53.798;10.382;2023-03-29T04:00:03;9.97;;;4.43;;
12511;SDS011;6321;53.798;10.382;2023-03-29T04:02:43;9.37;;;4.10;;
12511;SDS011;6321;53.798;10.382;2023-03-29T04:05:09;9.50;;;4.17;;
12511;SDS011;6321;53.798;10.382;2023-03-29T04:07:35;8.20;;;4.00;;
12511;SDS011;6321;53.798;10.382;2023-03-29T04:10:01;8.83;;;4.50;;
12511;SDS011;6321;53.798;10.382;2023-03-29T04:12:27;8.30;;;4.13;;
12511;SDS011;6321;53.798;10.382;2023-03-29T04:14:53;5.97;;;4.07;;
12511;SDS011;6321;53.798;10.382;2023-03-29T04:17:19;10.00;;;3.77;;
12511;SDS011;6321;53.798;10.382;2023-03-29T04:19:45;7.47;;;4.27;;
12511;SDS011;6321;53.798;10.382;2023-03-29T04:22:11;6.90;;;3.90;;
12511;SDS011;6321;53.798;10.382;2023-03-29T04:24:37;6.07;;;3.90;;
12511;SDS011;6321;53.798;10.382;2023-03-29T04:27:03;6.17;;;4.47;;
12511;SDS011;6321;53.798;10.382;2023-03-29T04:29:29;7.63;;;4.40;;
12511;SDS011;6321;53.798;10.382;2023-03-29T04:31:55;5.03;;;3.57;;
12511;SDS011;6321;53.798;10.382;2023-03-29T04:34:21;8.73;;;4.43;;
12511;SDS011;6321;53.798;10.382;2023-03-29T04:36:47;5.47;;;3.80;;
12511;SDS011;6321;53.798;10.382;2023-03-29T04:39:15;7.83;;;4.17;;
12511;SDS011;6321;53.798;10.382;2023-03-29T04:41:45;8.20;;;4.07;;
12511;SDS011;6321;53.798;10.382;2023-03-29T04:44:12;6.13;;;3.70;;
12511;SDS011;6321;53.798;10.382;2023-03-29T04:46:38;11.07;;;3.97;;
12511;SDS011;6321;53.798;10.382;2023-03-29T04:49:04;8.67;;;4.37;;
12511;SDS011;6321;53.798;10.382;2023-03-29T04:51:31;8.03;;;4.07;;
12511;SDS011;6321;53.798;10.382;2023-03-29T04:53:57;8.57;;;4.33;;
12511;SDS011;6321;53.798;10.382;2023-03-29T04:56:23;6.20;;;3.80;;
12511;SDS011;6321;53.798;10.382;2023-03-29T04:58:50;6.73;;;3.77;;
12511;SDS011;6321;53.798;10.382;2023-03-29T05:01:16;9.30;;;4.50;;
12511;SDS011;6321;53.798;10.382;2023-03-29T05:03:42;12.23;;;3.97;;
12511;SDS011;6321;53.798;10.382;2023-03-29T05:06:08;9.87;;;3.80;;
12511;SDS011;6321;53.798;10.382;2023-03-29T05:08:36;5.30;;;3.40;;
12511;SDS011;6321;53.798;10.382;2023-03-29T05:11:04;10.70;;;4.03;;
12511;SDS011;6321;53.798;10.382;2023-03-29T05:13:30;7.43;;;4.17;;
12511;SDS011;6321;53.798;10.382;2023-03-29T05:15:56;8.17;;;4.07;;
12511;SDS011;6321;53.798;10.382;2023-03-29T05:18:24;7.03;;;4.20;;
12511;SDS011;6321;53.798;10.382;2023-03-29T05:20:50;8.63;;;4.77;;
12511;SDS011;6321;53.798;10.382;2023-03-29T05:23:18;9.10;;;4.33;;
12511;SDS011;6321;53.798;10.382;2023-03-29T05:25:44;8.07;;;4.47;;
12511;SDS011;6321;53.798;10.382;2023-03-29T05:28:12;10.87;;;5.37;;
12511;SDS011;6321;53.798;10.382;2023-03-29T05:30:39;6.27;;;4.27;;
12511;SDS011;6321;53.798;10.382;2023-03-29T05:33:05;7.47;;;4.97;;
12511;SDS011;6321;53.798;10.382;2023-03-29T05:35:31;10.33;;;5.17;;
12511;SDS011;6321;53.798;10.382;2023-03-29T05:37:57;8.87;;;4.73;;
12511;SDS011;6321;53.798;10.382;2023-03-29T05:40:24;8.33;;;4.77;;
12511;SDS011;6321;53.798;10.382;2023-03-29T05:42:50;8.37;;;4.87;;
12511;SDS011;6321;53.798;10.382;2023-03-29T05:45:17;15.70;;;5.07;;
12511;SDS011;6321;53.798;10.382;2023-03-29T05:47:43;7.10;;;5.57;;
12511;SDS011;6321;53.798;10.382;2023-03-29T05:50:09;7.17;;;5.03;;
12511;SDS011;6321;53.798;10.382;2023-03-29T05:52:35;6.50;;;5.00;;
12511;SDS011;6321;53.798;10.382;2023-03-29T05:55:02;8.90;;;4.80;;
12511;SDS011;6321;53.798;10.382;2023-03-29T05:57:28;7.77;;;6.13;;
12511;SDS011;6321;53.798;10.382;2023-03-29T05:59:54;10.37;;;5.60;;
12511;SDS011;6321;53.798;10.382;2023-03-29T06:02:20;7.30;;;5.83;;
12511;SDS011;6321;53.798;10.382;2023-03-29T06:04:46;7.87;;;5.33;;
12511;SDS011;6321;53.798;10.382;2023-03-29T06:07:12;10.10;;;6.60;;
12511;SDS011;6321;53.798;10.382;2023-03-29T06:09:39;9.13;;;6.43;;
12511;SDS011;6321;53.798;10.382;2023-03-29T06:12:05;10.63;;;6.00;;
12511;SDS011;6321;53.798;10.382;2023-03-29T06:14:31;12.80;;;6.30;;
12511;SDS011;6321;53.798;10.382;2023-03-29T06:16:57;10.23;;;6.17;;
12511;SDS011;6321;53.798;10.382;2023-03-29T06:19:25;12.90;;;6.43;;
12511;SDS011;6321;53.798;10.382;2023-03-29T06:21:51;9.97;;;6.60;;
12511;SDS011;6321;53.798;10.382;2023-03-29T06:24:18;11.27;;;7.00;;
12511;SDS011;6321;53.798;10.382;2023-03-29T06:26:44;11.43;;;6.93;;
12511;SDS011;6321;53.798;10.382;2023-03-29T06:29:10;10.30;;;6.80;;
12511;SDS011;6321;53.798;10.382;2023-03-29T06:31:36;8.77;;;6.73;;
12511;SDS011;6321;53.798;10.382;2023-03-29T06:34:02;12.57;;;6.70;;
12511;SDS011;6321;53.798;10.382;2023-03-29T06:36:29;10.07;;;7.00;;
12511;SDS011;6321;53.798;10.382;2023-03-29T06:38:58;8.97;;;6.63;;
12511;SDS011;6321;53.798;10.382;2023-03-29T06:41:24;9.60;;;6.97;;
12511;SDS011;6321;53.798;10.382;2023-03-29T06:43:50;12.77;;;7.07;;
12511;SDS011;6321;53.798;10.382;2023-03-29T06:46:17;12.50;;;7.53;;
12511;SDS011;6321;53.798;10.382;2023-03-29T06:48:43;14.33;;;8.40;;
12511;SDS011;6321;53.798;10.382;2023-03-29T06:51:09;10.40;;;7.23;;
12511;SDS011;6321;53.798;10.382;2023-03-29T06:53:36;11.30;;;7.93;;
12511;SDS011;6321;53.798;10.382;2023-03-29T06:56:02;12.20;;;7.00;;
12511;SDS011;6321;53.798;10.382;2023-03-29T06:58:32;11.90;;;7.80;;
12511;SDS011;6321;53.798;10.382;2023-03-29T07:00:59;13.07;;;8.37;;
12511;SDS011;6321;53.798;10.382;2023-03-29T07:03:26;9.40;;;7.07;;
12511;SDS011;6321;53.798;10.382;2023-03-29T07:05:52;10.17;;;7.50;;
12511;SDS011;6321;53.798;10.382;2023-03-29T07:08:25;11.87;;;7.70;;
12511;SDS011;6321;53.798;10.382;2023-03-29T07:10:55;9.47;;;7.50;;
12511;SDS011;6321;53.798;10.382;2023-03-29T07:13:22;11.97;;;7.80;;
12511;SDS011;6321;53.798;10.382;2023-03-29T07:15:50;12.77;;;8.47;;
12511;SDS011;6321;53.798;10.382;2023-03-29T07:18:16;13.57;;;7.70;;
12511;SDS011;6321;53.798;10.382;2023-03-29T07:20:42;9.33;;;7.47;;
12511;SDS011;6321;53.798;10.382;2023-03-29T07:23:08;14.43;;;8.00;;
12511;SDS011;6321;53.798;10.382;2023-03-29T07:25:35;12.53;;;7.93;;
12511;SDS011;6321;53.798;10.382;2023-03-29T07:28:01;11.13;;;7.03;;
12511;SDS011;6321;53.798;10.382;2023-03-29T07:30:28;13.50;;;7.57;;
12511;SDS011;6321;53.798;10.382;2023-03-29T07:32:54;8.93;;;6.80;;
12511;SDS011;6321;53.798;10.382;2023-03-29T07:35:22;11.27;;;6.63;;
12511;SDS011;6321;53.798;10.382;2023-03-29T07:37:48;9.73;;;6.50;;
12511;SDS011;6321;53.798;10.382;2023-03-29T07:40:15;11.70;;;6.60;;
12511;SDS011;6321;53.798;10.382;2023-03-29T07:42:51;7.77;;;6.70;;
12511;SDS011;6321;53.798;10.382;2023-03-29T07:45:18;12.50;;;6.37;;
12511;SDS011;6321;53.798;10.382;2023-03-29T07:47:48;9.83;;;7.03;;
12511;SDS011;6321;53.798;10.382;2023-03-29T07:50:14;12.43;;;6.37;;
12511;SDS011;6321;53.798;10.382;2023-03-29T07:52:41;9.77;;;6.00;;
12511;SDS011;6321;53.798;10.382;2023-03-29T07:55:08;10.30;;;6.50;;
12511;SDS011;6321;53.798;10.382;2023-03-29T07:57:35;8.53;;;5.80;;
12511;SDS011;6321;53.798;10.382;2023-03-29T08:00:02;10.17;;;6.43;;
12511;SDS011;6321;53.798;10.382;2023-03-29T08:02:35;9.73;;;6.43;;
12511;SDS011;6321;53.798;10.382;2023-03-29T08:05:01;10.53;;;6.53;;
12511;SDS011;6321;53.798;10.382;2023-03-29T08:07:27;9.43;;;6.37;;
12511;SDS011;6321;53.798;10.382;2023-03-29T08:09:53;7.67;;;6.30;;
12511;SDS011;6321;53.798;10.382;2023-03-29T08:12:20;9.20;;;6.20;;
12511;SDS011;6321;53.798;10.382;2023-03-29T08:14:46;7.87;;;5.80;;
12511;SDS011;6321;53.798;10.382;2023-03-29T08:17:12;7.77;;;5.37;;
12511;SDS011;6321;53.798;10.382;2023-03-29T08:19:38;8.00;;;5.83;;
12511;SDS011;6321;53.798;10.382;2023-03-29T08:22:03;8.13;;;6.23;;
12511;SDS011;6321;53.798;10.382;2023-03-29T08:24:29;8.87;;;6.03;;
12511;SDS011;6321;53.798;10.382;2023-03-29T08:26:55;7.07;;;6.13;;
12511;SDS011;6321;53.798;10.382;2023-03-29T08:29:21;9.00;;;6.73;;
12511;SDS011;6321;53.798;10.382;2023-03-29T08:31:47;7.27;;;6.07;;
12511;SDS011;6321;53.798;10.382;2023-03-29T08:34:13;9.50;;;6.43;;
12511;SDS011;6321;53.798;10.382;2023-03-29T08:36:40;8.83;;;6.23;;
12511;SDS011;6321;53.798;10.382;2023-03-29T08:39:06;11.73;;;6.80;;
12511;SDS011;6321;53.798;10.382;2023-03-29T08:46:43;6.57;;;5.40;;
12511;SDS011;6321;53.798;10.382;2023-03-29T08:49:09;7.13;;;6.17;;
12511;SDS011;6321;53.798;10.382;2023-03-29T08:51:37;6.83;;;5.57;;
12511;SDS011;6321;53.798;10.382;2023-03-29T08:54:05;9.30;;;5.87;;
12511;SDS011;6321;53.798;10.382;2023-03-29T08:56:33;8.80;;;5.60;;
12511;SDS011;6321;53.798;10.382;2023-03-29T08:59:00;7.97;;;5.97;;
12511;SDS011;6321;53.798;10.382;2023-03-29T09:01:27;7.50;;;5.73;;
12511;SDS011;6321;53.798;10.382;2023-03-29T09:04:07;8.50;;;5.27;;
12511;SDS011;6321;53.798;10.382;2023-03-29T09:06:33;10.47;;;5.87;;
12511;SDS011;6321;53.798;10.382;2023-03-29T09:08:59;7.67;;;4.90;;
12511;SDS011;6321;53.798;10.382;2023-03-29T09:21:42;6.10;;;5.47;;
12511;SDS011;6321;53.798;10.382;2023-03-29T09:26:40;8.17;;;5.73;;
12511;SDS011;6321;53.798;10.382;2023-03-29T09:31:42;6.47;;;5.07;;
12511;SDS011;6321;53.798;10.382;2023-03-29T09:36:54;7.10;;;5.67;;
12511;SDS011;6321;53.798;10.382;2023-03-29T09:39:22;5.90;;;4.97;;
12511;SDS011;6321;53.798;10.382;2023-03-29T09:41:53;8.80;;;5.80;;
12511;SDS011;6321;53.798;10.382;2023-03-29T09:44:21;9.13;;;5.90;;
12511;SDS011;6321;53.798;10.382;2023-03-29T09:47:00;7.10;;;5.77;;
12511;SDS011;6321;53.798;10.382;2023-03-29T09:49:32;6.53;;;5.07;;
12511;SDS011;6321;53.798;10.382;2023-03-29T09:52:00;6.73;;;5.70;;
12511;SDS011;6321;53.798;10.382;2023-03-29T09:54:28;6.30;;;5.00;;
12511;SDS011;6321;53.798;10.382;2023-03-29T09:56:54;10.40;;;5.10;;
12511;SDS011;6321;53.798;10.382;2023-03-29T09:59:20;7.50;;;5.27;;
12511;SDS011;6321;53.798;10.382;2023-03-29T10:01:46;8.63;;;5.57;;
12511;SDS011;6321;53.798;10.382;2023-03-29T10:04:13;8.87;;;5.37;;
12511;SDS011;6321;53.798;10.382;2023-03-29T10:06:44;6.33;;;5.30;;
12511;SDS011;6321;53.798;10.382;2023-03-29T10:09:14;9.30;;;5.73;;
12511;SDS011;6321;53.798;10.382;2023-03-29T10:11:40;8.93;;;5.30;;
12511;SDS011;6321;53.798;10.382;2023-03-29T10:14:15;5.57;;;4.97;;
12511;SDS011;6321;53.798;10.382;2023-03-29T10:16:43;6.27;;;5.13;;
12511;SDS011;6321;53.798;10.382;2023-03-29T10:19:17;6.60;;;5.27;;
12511;SDS011;6321;53.798;10.382;2023-03-29T10:21:43;6.90;;;5.40;;
12511;SDS011;6321;53.798;10.382;2023-03-29T10:24:10;6.93;;;5.50;;
12511;SDS011;6321;53.798;10.382;2023-03-29T10:26:36;8.63;;;4.90;;
12511;SDS011;6321;53.798;10.382;2023-03-29T10:29:06;8.53;;;5.27;;
12511;SDS011;6321;53.798;10.382;2023-03-29T10:31:33;7.27;;;5.70;;
12511;SDS011;6321;53.798;10.382;2023-03-29T10:34:05;9.17;;;5.53;;
12511;SDS011;6321;53.798;10.382;2023-03-29T10:36:32;6.17;;;4.90;;
12511;SDS011;6321;53.798;10.382;2023-03-29T10:38:59;6.03;;;5.43;;
12511;SDS011;6321;53.798;10.382;2023-03-29T10:41:25;8.87;;;5.67;;
12511;SDS011;6321;53.798;10.382;2023-03-29T10:43:52;7.40;;;5.17;;
12511;SDS011;6321;53.798;10.382;2023-03-29T10:48:45;6.67;;;5.07;;
12511;SDS011;6321;53.798;10.382;2023-03-29T10:51:12;6.53;;;4.93;;
12511;SDS011;6321;53.798;10.382;2023-03-29T10:53:38;6.83;;;5.30;;
12511;SDS011;6321;53.798;10.382;2023-03-29T10:56:25;6.77;;;5.70;;
12511;SDS011;6321;53.798;10.382;2023-03-29T10:59:08;6.13;;;5.10;;
12511;SDS011;6321;53.798;10.382;2023-03-29T11:01:50;7.57;;;5.63;;
12511;SDS011;6321;53.798;10.382;2023-03-29T11:04:24;8.60;;;5.47;;
12511;SDS011;6321;53.798;10.382;2023-03-29T11:07:12;7.87;;;5.03;;
12511;SDS011;6321;53.798;10.382;2023-03-29T11:12:27;7.13;;;5.57;;
12511;SDS011;6321;53.798;10.382;2023-03-29T11:15:07;9.20;;;5.53;;
12511;SDS011;6321;53.798;10.382;2023-03-29T11:20:18;9.60;;;5.53;;
12511;SDS011;6321;53.798;10.382;2023-03-29T11:28:02;6.93;;;6.00;;
12511;SDS011;6321;53.798;10.382;2023-03-29T11:30:47;6.33;;;5.37;;
12511;SDS011;6321;53.798;10.382;2023-03-29T11:33:21;8.07;;;6.00;;
12511;SDS011;6321;53.798;10.382;2023-03-29T11:35:53;7.77;;;6.07;;
12511;SDS011;6321;53.798;10.382;2023-03-29T11:38:22;7.40;;;6.30;;
12511;SDS011;6321;53.798;10.382;2023-03-29T11:41:00;7.60;;;5.87;;
12511;SDS011;6321;53.798;10.382;2023-03-29T11:45:59;7.53;;;5.97;;
12511;SDS011;6321;53.798;10.382;2023-03-29T11:48:28;7.27;;;5.97;;
12511;SDS011;6321;53.798;10.382;2023-03-29T11:53:27;8.80;;;6.47;;
12511;SDS011;6321;53.798;10.382;2023-03-29T11:55:55;10.37;;;6.40;;
12511;SDS011;6321;53.798;10.382;2023-03-29T11:58:31;9.27;;;7.17;;
12511;SDS011;6321;53.798;10.382;2023-03-29T12:01:11;10.20;;;7.37;;
12511;SDS011;6321;53.798;10.382;2023-03-29T12:06:12;10.17;;;7.50;;
12511;SDS011;6321;53.798;10.382;2023-03-29T12:08:41;8.93;;;7.47;;
12511;SDS011;6321;53.798;10.382;2023-03-29T12:13:41;10.93;;;8.60;;
12511;SDS011;6321;53.798;10.382;2023-03-29T12:16:12;12.73;;;9.33;;
12511;SDS011;6321;53.798;10.382;2023-03-29T12:18:47;11.43;;;8.80;;
12511;SDS011;6321;53.798;10.382;2023-03-29T12:21:15;10.63;;;8.73;;
12511;SDS011;6321;53.798;10.382;2023-03-29T12:23:44;11.00;;;8.77;;
12511;SDS011;6321;53.798;10.382;2023-03-29T12:31:51;11.17;;;8.73;;
12511;SDS011;6321;53.798;10.382;2023-03-29T12:34:32;14.13;;;9.20;;
12511;SDS011;6321;53.798;10.382;2023-03-29T12:39:46;10.53;;;9.40;;
12511;SDS011;6321;53.798;10.382;2023-03-29T12:42:19;13.77;;;10.50;;
12511;SDS011;6321;53.798;10.382;2023-03-29T12:44:49;15.37;;;9.33;;
12511;SDS011;6321;53.798;10.382;2023-03-29T12:47:20;12.83;;;9.77;;
12511;SDS011;6321;53.798;10.382;2023-03-29T12:49:48;10.37;;;8.20;;
12511;SDS011;6321;53.798;10.382;2023-03-29T12:52:40;9.90;;;8.87;;
12511;SDS011;6321;53.798;10.382;2023-03-29T12:55:04;11.10;;;9.20;;
12511;SDS011;6321;53.798;10.382;2023-03-29T12:57:42;9.90;;;9.00;;
12511;SDS011;6321;53.798;10.382;2023-03-29T13:00:31;12.17;;;9.70;;
12511;SDS011;6321;53.798;10.382;2023-03-29T13:03:18;10.03;;;9.00;;
12511;SDS011;6321;53.798;10.382;2023-03-29T13:05:43;10.63;;;9.53;;
12511;SDS011;6321;53.798;10.382;2023-03-29T13:08:18;12.70;;;10.03;;
12511;SDS011;6321;53.798;10.382;2023-03-29T13:10:51;11.03;;;9.13;;
12511;SDS011;6321;53.798;10.382;2023-03-29T13:13:17;12.93;;;9.20;;
12511;SDS011;6321;53.798;10.382;2023-03-29T13:15:45;10.33;;;9.30;;
12511;SDS011;6321;53.798;10.382;2023-03-29T13:21:08;10.37;;;8.90;;
12511;SDS011;6321;53.798;10.382;2023-03-29T13:23:49;12.97;;;11.03;;
12511;SDS011;6321;53.798;10.382;2023-03-29T13:28:52;12.53;;;11.17;;
12511;SDS011;6321;53.798;10.382;2023-03-29T13:31:31;13.37;;;11.20;;
12511;SDS011;6321;53.798;10.382;2023-03-29T13:39:28;12.60;;;11.10;;
12511;SDS011;6321;53.798;10.382;2023-03-29T13:42:06;12.80;;;10.40;;
12511;SDS011;6321;53.798;10.382;2023-03-29T13:44:38;14.37;;;10.20;;
12511;SDS011;6321;53.798;10.382;2023-03-29T13:47:35;13.50;;;10.00;;
12511;SDS011;6321;53.798;10.382;2023-03-29T13:50:04;13.30;;;10.77;;
12511;SDS011;6321;53.798;10.382;2023-03-29T13:52:39;10.60;;;9.60;;
12511;SDS011;6321;53.798;10.382;2023-03-29T13:55:07;10.77;;;9.63;;
12511;SDS011;6321;53.798;10.382;2023-03-29T13:57:37;10.43;;;9.43;;
12511;SDS011;6321;53.798;10.382;2023-03-29T14:00:12;10.70;;;9.60;;
12511;SDS011;6321;53.798;10.382;2023-03-29T14:02:55;11.20;;;9.70;;
12511;SDS011;6321;53.798;10.382;2023-03-29T14:05:29;11.70;;;10.40;;
12511;SDS011;6321;53.798;10.382;2023-03-29T14:07:56;11.97;;;10.10;;
12511;SDS011;6321;53.798;10.382;2023-03-29T14:10:37;12.70;;;9.83;;
12511;SDS011;6321;53.798;10.382;2023-03-29T14:13:03;12.80;;;8.30;;
12511;SDS011;6321;53.798;10.382;2023-03-29T14:15:43;11.13;;;9.33;;
12511;SDS011;6321;53.798;10.382;2023-03-29T14:18:14;12.37;;;9.73;;
12511;SDS011;6321;53.798;10.382;2023-03-29T14:20:42;10.00;;;9.03;;
12511;SDS011;6321;53.798;10.382;2023-03-29T14:23:09;10.43;;;9.33;;
12511;SDS011;6321;53.798;10.382;2023-03-29T14:25:37;11.23;;;9.43;;
12511;SDS011;6321;53.798;10.382;2023-03-29T14:28:19;10.87;;;9.73;;
12511;SDS011;6321;53.798;10.382;2023-03-29T14:30:46;12.93;;;9.53;;
12511;SDS011;6321;53.798;10.382;2023-03-29T14:33:13;10.80;;;9.33;;
12511;SDS011;6321;53.798;10.382;2023-03-29T14:35:39;10.23;;;9.23;;
12511;SDS011;6321;53.798;10.382;2023-03-29T14:38:08;10.17;;;8.80;;
12511;SDS011;6321;53.798;10.382;2023-03-29T14:40:36;10.97;;;9.73;;
12511;SDS011;6321;53.798;10.382;2023-03-29T14:43:03;9.33;;;8.43;;
12511;SDS011;6321;53.798;10.382;2023-03-29T14:45:30;10.60;;;8.40;;
12511;SDS011;6321;53.798;10.382;2023-03-29T14:47:56;10.90;;;8.83;;
12511;SDS011;6321;53.798;10.382;2023-03-29T14:50:25;12.87;;;8.77;;
12511;SDS011;6321;53.798;10.382;2023-03-29T14:52:51;10.03;;;8.93;;
12511;SDS011;6321;53.798;10.382;2023-03-29T14:55:18;9.60;;;8.70;;
12511;SDS011;6321;53.798;10.382;2023-03-29T14:57:47;10.77;;;9.53;;
12511;SDS011;6321;53.798;10.382;2023-03-29T15:00:18;9.70;;;8.63;;
12511;SDS011;6321;53.798;10.382;2023-03-29T15:02:47;11.43;;;9.03;;
12511;SDS011;6321;53.798;10.382;2023-03-29T15:05:59;11.10;;;9.63;;
12511;SDS011;6321;53.798;10.382;2023-03-29T15:08:00;11.63;;;9.20;;
12511;SDS011;6321;53.798;10.382;2023-03-29T15:10:26;9.90;;;8.90;;
12511;SDS011;6321;53.798;10.382;2023-03-29T15:12:55;10.30;;;9.30;;
12511;SDS011;6321;53.798;10.382;2023-03-29T15:15:22;9.73;;;8.73;;
12511;SDS011;6321;53.798;10.382;2023-03-29T15:17:49;9.67;;;8.77;;
12511;SDS011;6321;53.798;10.382;2023-03-29T15:22:55;9.03;;;8.13;;
12511;SDS011;6321;53.798;10.382;2023-03-29T15:25:24;9.87;;;8.10;;
12511;SDS011;6321;53.798;10.382;2023-03-29T15:27:53;8.90;;;8.00;;
12511;SDS011;6321;53.798;10.382;2023-03-29T15:30:19;10.07;;;8.20;;
12511;SDS011;6321;53.798;10.382;2023-03-29T15:32:54;8.60;;;7.83;;
12511;SDS011;6321;53.798;10.382;2023-03-29T15:35:21;9.70;;;8.70;;
12511;SDS011;6321;53.798;10.382;2023-03-29T15:37:48;12.83;;;8.67;;
12511;SDS011;6321;53.798;10.382;2023-03-29T15:40:14;13.57;;;8.27;;
12511;SDS011;6321;53.798;10.382;2023-03-29T15:42:41;10.00;;;8.77;;
12511;SDS011;6321;53.798;10.382;2023-03-29T15:45:12;11.40;;;10.23;;
12511;SDS011;6321;53.798;10.382;2023-03-29T15:47:38;10.03;;;8.97;;
12511;SDS011;6321;53.798;10.382;2023-03-29T15:50:05;11.10;;;9.07;;
12511;SDS011;6321;53.798;10.382;2023-03-29T15:52:31;10.90;;;9.30;;
12511;SDS011;6321;53.798;10.382;2023-03-29T15:54:57;9.90;;;8.90;;
12511;SDS011;6321;53.798;10.382;2023-03-29T15:57:22;9.77;;;8.80;;
12511;SDS011;6321;53.798;10.382;2023-03-29T15:59:48;9.63;;;8.40;;
12511;SDS011;6321;53.798;10.382;2023-03-29T16:02:15;12.63;;;8.97;;
12511;SDS011;6321;53.798;10.382;2023-03-29T16:04:44;9.50;;;8.57;;